EDJ weather

Bellefontaine Regional Airport
Bellefontaine, Ohio, United States

Public forecast

Using degrees Fahrenheit for public forecast. Weather courtesy of forecast.io.

METAR (pilot weather report)

Retrieved 2019/05/21 14:20 UTC (0 seconds ago):

KEDJ 211420Z AUTO 11008G15KT 10SM CLR 09/03 A3017 RMK AO1

TAF (pilot weather forecast)

Closest forecast is James M Cox Dayton International Airport, 33.7 nm (62.4 km) SSW. Retrieved 2019/05/21 12:30 UTC (2 hours ago):

TAF KDAY 211129Z 2112/2212 07008KT P6SM BKN150 FM211600 08010KT P6SM BKN070 FM220000 09010KT P6SM FEW080 FM220900 11009KT P6SM SCT060 BKN200